sensor_id;sensor_type;location;lat;lon;timestamp;pressure;altitude;pressure_sealevel;temperature;humidity
83633;BME280;73595;53.084;6.696;2024-01-15T00:00:44;99922.22;;;0.40;91.21
83633;BME280;73595;53.084;6.696;2024-01-15T00:03:09;99963.28;;;0.69;91.71
83633;BME280;73595;53.084;6.696;2024-01-15T00:05:35;99946.66;;;0.70;91.52
83633;BME280;73595;53.084;6.696;2024-01-15T00:08:01;99952.34;;;0.75;91.03
83633;BME280;73595;53.084;6.696;2024-01-15T00:10:26;99949.88;;;0.73;91.00
83633;BME280;73595;53.084;6.696;2024-01-15T00:12:52;99963.06;;;0.81;91.15
83633;BME280;73595;53.084;6.696;2024-01-15T00:15:17;99989.47;;;0.88;91.80
83633;BME280;73595;53.084;6.696;2024-01-15T00:17:43;99973.25;;;0.85;92.82
83633;BME280;73595;53.084;6.696;2024-01-15T00:20:08;99966.47;;;0.72;93.61
83633;BME280;73595;53.084;6.696;2024-01-15T00:22:35;99973.50;;;0.81;93.82
83633;BME280;73595;53.084;6.696;2024-01-15T00:25:01;99958.00;;;0.80;94.00
83633;BME280;73595;53.084;6.696;2024-01-15T00:27:27;99967.91;;;0.86;94.06
83633;BME280;73595;53.084;6.696;2024-01-15T00:29:52;99943.19;;;0.80;93.66
83633;BME280;73595;53.084;6.696;2024-01-15T00:32:19;99955.63;;;0.77;94.45
83633;BME280;73595;53.084;6.696;2024-01-15T00:34:46;99951.28;;;0.77;94.67
83633;BME280;73595;53.084;6.696;2024-01-15T00:37:12;99901.06;;;0.54;94.83
83633;BME280;73595;53.084;6.696;2024-01-15T00:39:38;99927.22;;;0.74;95.24
83633;BME280;73595;53.084;6.696;2024-01-15T00:42:03;99914.44;;;0.71;96.08
83633;BME280;73595;53.084;6.696;2024-01-15T00:44:29;99914.69;;;0.68;95.87
83633;BME280;73595;53.084;6.696;2024-01-15T00:46:54;99923.63;;;0.65;96.10
83633;BME280;73595;53.084;6.696;2024-01-15T00:49:19;99940.50;;;0.71;96.47
83633;BME280;73595;53.084;6.696;2024-01-15T00:51:45;99919.88;;;0.58;96.64
83633;BME280;73595;53.084;6.696;2024-01-15T00:54:10;99819.09;;;-0.04;97.17
83633;BME280;73595;53.084;6.696;2024-01-15T00:56:36;99935.56;;;0.68;97.24
83633;BME280;73595;53.084;6.696;2024-01-15T00:59:02;99907.59;;;0.49;97.41
83633;BME280;73595;53.084;6.696;2024-01-15T01:01:27;99904.84;;;0.50;97.86
83633;BME280;73595;53.084;6.696;2024-01-15T01:03:52;99916.81;;;0.53;97.95
83633;BME280;73595;53.084;6.696;2024-01-15T01:06:18;99909.81;;;0.53;98.03
83633;BME280;73595;53.084;6.696;2024-01-15T01:08:43;99891.41;;;0.45;98.11
83633;BME280;73595;53.084;6.696;2024-01-15T01:11:13;99853.97;;;0.25;97.98
83633;BME280;73595;53.084;6.696;2024-01-15T01:13:38;99900.97;;;0.66;97.94
83633;BME280;73595;53.084;6.696;2024-01-15T01:16:03;99897.25;;;0.59;97.92
83633;BME280;73595;53.084;6.696;2024-01-15T01:18:29;99909.56;;;0.77;97.70
83633;BME280;73595;53.084;6.696;2024-01-15T01:20:54;99896.47;;;0.68;97.51
83633;BME280;73595;53.084;6.696;2024-01-15T01:23:20;99911.13;;;0.69;97.81
83633;BME280;73595;53.084;6.696;2024-01-15T01:25:45;99887.06;;;0.56;98.01
83633;BME280;73595;53.084;6.696;2024-01-15T01:28:11;99874.09;;;0.44;98.16
83633;BME280;73595;53.084;6.696;2024-01-15T01:30:36;99897.09;;;0.60;97.64
83633;BME280;73595;53.084;6.696;2024-01-15T01:33:01;99885.13;;;0.58;97.78
83633;BME280;73595;53.084;6.696;2024-01-15T01:35:27;99873.72;;;0.49;97.42
83633;BME280;73595;53.084;6.696;2024-01-15T01:37:52;99877.00;;;0.51;97.64
83633;BME280;73595;53.084;6.696;2024-01-15T01:40:18;99850.34;;;0.38;97.60
83633;BME280;73595;53.084;6.696;2024-01-15T01:42:43;99880.50;;;0.61;97.62
83633;BME280;73595;53.084;6.696;2024-01-15T01:45:08;99864.72;;;0.63;97.26
83633;BME280;73595;53.084;6.696;2024-01-15T01:47:34;99851.69;;;0.63;97.09
83633;BME280;73595;53.084;6.696;2024-01-15T01:50:01;99869.06;;;0.83;96.69
83633;BME280;73595;53.084;6.696;2024-01-15T01:52:27;99866.38;;;0.85;97.32
83633;BME280;73595;53.084;6.696;2024-01-15T01:54:53;99865.66;;;0.82;97.28
83633;BME280;73595;53.084;6.696;2024-01-15T01:57:19;99863.09;;;0.92;96.64
83633;BME280;73595;53.084;6.696;2024-01-15T01:59:45;99838.19;;;0.78;96.45
83633;BME280;73595;53.084;6.696;2024-01-15T02:02:11;99800.00;;;0.58;96.11
83633;BME280;73595;53.084;6.696;2024-01-15T02:04:37;99839.16;;;0.77;95.74
83633;BME280;73595;53.084;6.696;2024-01-15T02:07:03;99814.00;;;0.67;95.60
83633;BME280;73595;53.084;6.696;2024-01-15T02:09:29;99840.81;;;0.88;95.20
83633;BME280;73595;53.084;6.696;2024-01-15T02:11:55;99849.75;;;0.86;94.77
83633;BME280;73595;53.084;6.696;2024-01-15T02:14:20;99856.22;;;0.91;94.60
83633;BME280;73595;53.084;6.696;2024-01-15T02:16:46;99851.53;;;0.85;94.64
83633;BME280;73595;53.084;6.696;2024-01-15T02:19:18;99856.09;;;0.93;93.78
83633;BME280;73595;53.084;6.696;2024-01-15T02:21:44;99864.59;;;0.95;93.53
83633;BME280;73595;53.084;6.696;2024-01-15T02:24:10;99856.31;;;0.80;93.41
83633;BME280;73595;53.084;6.696;2024-01-15T02:26:36;99879.69;;;0.91;93.58
83633;BME280;73595;53.084;6.696;2024-01-15T02:29:04;99831.56;;;0.65;93.87
83633;BME280;73595;53.084;6.696;2024-01-15T02:31:30;99835.28;;;0.72;93.94
83633;BME280;73595;53.084;6.696;2024-01-15T02:33:55;99856.63;;;0.87;94.16
83633;BME280;73595;53.084;6.696;2024-01-15T02:36:21;99803.22;;;0.50;95.17
83633;BME280;73595;53.084;6.696;2024-01-15T02:38:46;99827.13;;;0.56;95.13
83633;BME280;73595;53.084;6.696;2024-01-15T02:41:11;99864.81;;;0.82;95.65
83633;BME280;73595;53.084;6.696;2024-01-15T02:43:39;99848.44;;;0.70;95.85
83633;BME280;73595;53.084;6.696;2024-01-15T02:46:05;99860.19;;;0.86;95.89
83633;BME280;73595;53.084;6.696;2024-01-15T02:48:30;99810.22;;;0.50;96.15
83633;BME280;73595;53.084;6.696;2024-01-15T02:50:55;99872.13;;;0.88;96.69
83633;BME280;73595;53.084;6.696;2024-01-15T02:53:21;99851.75;;;0.72;96.52
83633;BME280;73595;53.084;6.696;2024-01-15T02:55:46;99893.84;;;0.98;96.38
83633;BME280;73595;53.084;6.696;2024-01-15T02:58:11;99883.25;;;0.90;96.11
83633;BME280;73595;53.084;6.696;2024-01-15T03:00:37;99880.75;;;0.89;96.23
83633;BME280;73595;53.084;6.696;2024-01-15T03:03:02;99882.56;;;0.88;96.30
83633;BME280;73595;53.084;6.696;2024-01-15T03:05:27;99887.25;;;0.94;96.60
83633;BME280;73595;53.084;6.696;2024-01-15T03:07:53;99864.56;;;0.85;96.57
83633;BME280;73595;53.084;6.696;2024-01-15T03:10:18;99883.28;;;1.00;96.23
83633;BME280;73595;53.084;6.696;2024-01-15T03:12:44;99853.66;;;0.70;96.72
83633;BME280;73595;53.084;6.696;2024-01-15T03:15:09;99890.66;;;0.85;96.71
83633;BME280;73595;53.084;6.696;2024-01-15T03:17:35;99882.94;;;0.84;96.59
83633;BME280;73595;53.084;6.696;2024-01-15T03:20:01;99869.19;;;0.72;96.84
83633;BME280;73595;53.084;6.696;2024-01-15T03:22:28;99888.28;;;0.82;96.51
83633;BME280;73595;53.084;6.696;2024-01-15T03:24:53;99881.56;;;0.79;96.67
83633;BME280;73595;53.084;6.696;2024-01-15T03:27:18;99869.28;;;0.70;96.69
83633;BME280;73595;53.084;6.696;2024-01-15T03:29:44;99858.84;;;0.61;96.09
83633;BME280;73595;53.084;6.696;2024-01-15T03:32:09;99863.41;;;0.68;95.68
83633;BME280;73595;53.084;6.696;2024-01-15T03:34:35;99883.47;;;0.77;95.81
83633;BME280;73595;53.084;6.696;2024-01-15T03:37:00;99871.06;;;0.70;95.99
83633;BME280;73595;53.084;6.696;2024-01-15T03:39:25;99900.50;;;0.81;95.69
83633;BME280;73595;53.084;6.696;2024-01-15T03:41:51;99877.69;;;0.74;95.92
83633;BME280;73595;53.084;6.696;2024-01-15T03:44:16;99877.25;;;0.69;95.88
83633;BME280;73595;53.084;6.696;2024-01-15T03:46:42;99851.69;;;0.63;95.82
83633;BME280;73595;53.084;6.696;2024-01-15T03:49:07;99850.56;;;0.56;95.83
83633;BME280;73595;53.084;6.696;2024-01-15T03:51:32;99873.56;;;0.71;96.45
83633;BME280;73595;53.084;6.696;2024-01-15T03:53:58;99848.41;;;0.61;96.39
83633;BME280;73595;53.084;6.696;2024-01-15T03:56:26;99867.09;;;0.66;96.31
83633;BME280;73595;53.084;6.696;2024-01-15T03:58:51;99869.50;;;0.78;96.33
83633;BME280;73595;53.084;6.696;2024-01-15T04:01:17;99868.97;;;0.85;96.42
83633;BME280;73595;53.084;6.696;2024-01-15T04:03:42;99834.84;;;0.67;96.42
83633;BME280;73595;53.084;6.696;2024-01-15T04:06:08;99831.00;;;0.71;96.06
83633;BME280;73595;53.084;6.696;2024-01-15T04:08:33;99839.56;;;0.82;94.89
83633;BME280;73595;53.084;6.696;2024-01-15T04:10:58;99838.50;;;0.85;94.72
83633;BME280;73595;53.084;6.696;2024-01-15T04:13:25;99848.81;;;0.96;94.77
83633;BME280;73595;53.084;6.696;2024-01-15T04:15:50;99792.03;;;0.60;94.20
83633;BME280;73595;53.084;6.696;2024-01-15T04:18:16;99862.56;;;0.98;94.60
83633;BME280;73595;53.084;6.696;2024-01-15T04:20:41;99801.94;;;0.66;93.67
83633;BME280;73595;53.084;6.696;2024-01-15T04:23:07;99773.59;;;0.51;92.90
83633;BME280;73595;53.084;6.696;2024-01-15T04:25:32;99820.25;;;0.85;92.20
83633;BME280;73595;53.084;6.696;2024-01-15T04:27:58;99852.28;;;1.06;92.18
83633;BME280;73595;53.084;6.696;2024-01-15T04:30:23;99812.97;;;0.79;91.80
83633;BME280;73595;53.084;6.696;2024-01-15T04:32:52;99837.31;;;0.99;90.96
83633;BME280;73595;53.084;6.696;2024-01-15T04:35:17;99819.00;;;0.89;91.67
83633;BME280;73595;53.084;6.696;2024-01-15T04:37:42;99866.81;;;0.99;92.39
83633;BME280;73595;53.084;6.696;2024-01-15T04:40:08;99883.97;;;1.02;92.58
83633;BME280;73595;53.084;6.696;2024-01-15T04:42:34;99844.94;;;0.81;92.75
83633;BME280;73595;53.084;6.696;2024-01-15T04:45:00;99830.19;;;0.70;93.21
83633;BME280;73595;53.084;6.696;2024-01-15T04:47:25;99827.03;;;0.67;92.85
83633;BME280;73595;53.084;6.696;2024-01-15T04:49:50;99838.28;;;0.67;92.52
83633;BME280;73595;53.084;6.696;2024-01-15T04:52:16;99831.50;;;0.55;92.49
83633;BME280;73595;53.084;6.696;2024-01-15T04:54:43;99835.63;;;0.58;92.39
83633;BME280;73595;53.084;6.696;2024-01-15T04:57:08;99849.38;;;0.60;92.71
83633;BME280;73595;53.084;6.696;2024-01-15T04:59:34;99790.06;;;0.21;92.28
83633;BME280;73595;53.084;6.696;2024-01-15T05:01:59;99844.22;;;0.48;92.83
83633;BME280;73595;53.084;6.696;2024-01-15T05:04:24;99792.69;;;0.21;92.79
83633;BME280;73595;53.084;6.696;2024-01-15T05:06:50;99778.31;;;0.06;92.38
83633;BME280;73595;53.084;6.696;2024-01-15T05:09:16;99838.06;;;0.49;92.61
83633;BME280;73595;53.084;6.696;2024-01-15T05:11:43;99833.66;;;0.50;92.45
83633;BME280;73595;53.084;6.696;2024-01-15T05:14:08;99836.94;;;0.42;92.77
83633;BME280;73595;53.084;6.696;2024-01-15T05:16:33;99837.44;;;0.36;93.29
83633;BME280;73595;53.084;6.696;2024-01-15T05:18:59;99829.50;;;0.38;92.60
83633;BME280;73595;53.084;6.696;2024-01-15T05:21:24;99806.38;;;0.23;92.52
83633;BME280;73595;53.084;6.696;2024-01-15T05:23:49;99709.41;;;-0.41;92.32
83633;BME280;73595;53.084;6.696;2024-01-15T05:26:15;99745.50;;;-0.27;92.19
83633;BME280;73595;53.084;6.696;2024-01-15T05:28:41;99784.75;;;0.02;92.46
83633;BME280;73595;53.084;6.696;2024-01-15T05:31:08;99811.72;;;0.22;92.12
83633;BME280;73595;53.084;6.696;2024-01-15T05:33:34;99827.84;;;0.37;91.93
83633;BME280;73595;53.084;6.696;2024-01-15T05:35:59;99827.97;;;0.35;92.58
83633;BME280;73595;53.084;6.696;2024-01-15T05:38:25;99803.66;;;0.25;91.96
83633;BME280;73595;53.084;6.696;2024-01-15T05:40:50;99845.94;;;0.38;92.40
83633;BME280;73595;53.084;6.696;2024-01-15T05:43:15;99832.81;;;0.40;92.59
83633;BME280;73595;53.084;6.696;2024-01-15T05:45:43;99815.75;;;0.26;92.59
83633;BME280;73595;53.084;6.696;2024-01-15T05:48:08;99818.91;;;0.30;92.91
83633;BME280;73595;53.084;6.696;2024-01-15T05:50:34;99812.41;;;0.24;93.72
83633;BME280;73595;53.084;6.696;2024-01-15T05:53:02;99815.03;;;0.24;93.32
83633;BME280;73595;53.084;6.696;2024-01-15T05:55:28;99795.28;;;0.21;93.31
83633;BME280;73595;53.084;6.696;2024-01-15T05:57:53;99773.25;;;0.05;93.69
83633;BME280;73595;53.084;6.696;2024-01-15T06:00:18;99809.13;;;0.22;93.93
83633;BME280;73595;53.084;6.696;2024-01-15T06:02:44;99828.94;;;0.34;94.15
83633;BME280;73595;53.084;6.696;2024-01-15T06:05:09;99807.94;;;0.26;94.53
83633;BME280;73595;53.084;6.696;2024-01-15T06:07:35;99807.94;;;0.26;94.78
83633;BME280;73595;53.084;6.696;2024-01-15T06:10:01;99813.69;;;0.30;95.38
83633;BME280;73595;53.084;6.696;2024-01-15T06:12:26;99817.13;;;0.30;95.57
83633;BME280;73595;53.084;6.696;2024-01-15T06:14:53;99811.09;;;0.30;95.59
83633;BME280;73595;53.084;6.696;2024-01-15T06:17:18;99828.94;;;0.34;95.95
83633;BME280;73595;53.084;6.696;2024-01-15T06:19:43;99813.44;;;0.33;96.14
83633;BME280;73595;53.084;6.696;2024-01-15T06:22:09;99801.56;;;0.19;96.03
83633;BME280;73595;53.084;6.696;2024-01-15T06:24:34;99800.88;;;0.17;95.87
83633;BME280;73595;53.084;6.696;2024-01-15T06:26:59;99829.31;;;0.30;96.35
83633;BME280;73595;53.084;6.696;2024-01-15T06:29:25;99813.25;;;0.24;96.22
83633;BME280;73595;53.084;6.696;2024-01-15T06:31:51;99803.34;;;0.18;96.33
83633;BME280;73595;53.084;6.696;2024-01-15T06:34:16;99840.56;;;0.30;96.71
83633;BME280;73595;53.084;6.696;2024-01-15T06:36:42;99841.81;;;0.36;96.87
83633;BME280;73595;53.084;6.696;2024-01-15T06:39:07;99826.03;;;0.28;96.92
83633;BME280;73595;53.084;6.696;2024-01-15T06:41:33;99812.88;;;0.08;97.21
83633;BME280;73595;53.084;6.696;2024-01-15T06:43:58;99822.72;;;0.05;97.17
83633;BME280;73595;53.084;6.696;2024-01-15T06:46:23;99790.03;;;-0.09;97.69
83633;BME280;73595;53.084;6.696;2024-01-15T06:48:50;99808.44;;;-0.01;98.06
83633;BME280;73595;53.084;6.696;2024-01-15T06:51:16;99809.97;;;0.02;97.91
83633;BME280;73595;53.084;6.696;2024-01-15T06:53:41;99778.34;;;-0.15;98.38
83633;BME280;73595;53.084;6.696;2024-01-15T06:56:06;99823.94;;;0.21;98.03
83633;BME280;73595;53.084;6.696;2024-01-15T06:58:32;99783.31;;;-0.12;97.71
83633;BME280;73595;53.084;6.696;2024-01-15T07:00:57;99822.84;;;0.24;97.57
83633;BME280;73595;53.084;6.696;2024-01-15T07:03:23;99805.69;;;0.21;97.19
83633;BME280;73595;53.084;6.696;2024-01-15T07:05:48;99774.47;;;0.01;97.04
83633;BME280;73595;53.084;6.696;2024-01-15T07:08:13;99765.38;;;-0.05;96.67
83633;BME280;73595;53.084;6.696;2024-01-15T07:10:39;99800.13;;;0.26;96.44
83633;BME280;73595;53.084;6.696;2024-01-15T07:13:04;99804.22;;;0.29;95.75
83633;BME280;73595;53.084;6.696;2024-01-15T07:15:30;99807.28;;;0.34;95.85
83633;BME280;73595;53.084;6.696;2024-01-15T07:17:56;99799.97;;;0.28;95.08
83633;BME280;73595;53.084;6.696;2024-01-15T07:20:22;99800.41;;;0.33;94.99
83633;BME280;73595;53.084;6.696;2024-01-15T07:22:49;99810.31;;;0.39;95.07
83633;BME280;73595;53.084;6.696;2024-01-15T07:25:15;99787.09;;;0.26;94.83
83633;BME280;73595;53.084;6.696;2024-01-15T07:27:41;99810.56;;;0.36;94.63
83633;BME280;73595;53.084;6.696;2024-01-15T07:30:13;99803.03;;;0.33;94.15
83633;BME280;73595;53.084;6.696;2024-01-15T07:32:39;99815.09;;;0.34;94.45
83633;BME280;73595;53.084;6.696;2024-01-15T07:35:04;99795.09;;;0.13;94.59
83633;BME280;73595;53.084;6.696;2024-01-15T07:37:31;99758.22;;;-0.13;94.57
83633;BME280;73595;53.084;6.696;2024-01-15T07:39:56;99799.47;;;0.13;94.71
83633;BME280;73595;53.084;6.696;2024-01-15T07:42:21;99812.25;;;0.16;94.59
83633;BME280;73595;53.084;6.696;2024-01-15T07:44:47;99811.56;;;0.14;95.01
83633;BME280;73595;53.084;6.696;2024-01-15T07:47:12;99806.59;;;0.11;94.93
83633;BME280;73595;53.084;6.696;2024-01-15T07:49:38;99764.50;;;-0.15;94.97
83633;BME280;73595;53.084;6.696;2024-01-15T07:52:04;99816.50;;;0.17;94.67
83633;BME280;73595;53.084;6.696;2024-01-15T07:54:31;99821.78;;;0.26;94.47
83633;BME280;73595;53.084;6.696;2024-01-15T07:56:57;99797.56;;;0.15;93.99
83633;BME280;73595;53.084;6.696;2024-01-15T07:59:23;99816.25;;;0.20;94.72
83633;BME280;73595;53.084;6.696;2024-01-15T08:01:49;99768.44;;;0.00;94.02
83633;BME280;73595;53.084;6.696;2024-01-15T08:04:14;99826.47;;;0.33;94.02
83633;BME280;73595;53.084;6.696;2024-01-15T08:06:39;99842.44;;;0.49;94.17
83633;BME280;73595;53.084;6.696;2024-01-15T08:09:05;99831.78;;;0.31;94.98
83633;BME280;73595;53.084;6.696;2024-01-15T08:11:31;99850.28;;;0.28;95.99
83633;BME280;73595;53.084;6.696;2024-01-15T08:13:56;99764.44;;;-0.25;96.49
83633;BME280;73595;53.084;6.696;2024-01-15T08:16:22;99839.25;;;0.15;97.18
83633;BME280;73595;53.084;6.696;2024-01-15T08:18:49;99840.88;;;0.16;97.32
83633;BME280;73595;53.084;6.696;2024-01-15T08:21:15;99836.25;;;0.19;96.65
83633;BME280;73595;53.084;6.696;2024-01-15T08:23:40;99800.50;;;0.01;96.33
83633;BME280;73595;53.084;6.696;2024-01-15T08:26:05;99840.84;;;0.27;95.58
83633;BME280;73595;53.084;6.696;2024-01-15T08:28:31;99832.75;;;0.30;96.03
83633;BME280;73595;53.084;6.696;2024-01-15T08:30:56;99756.56;;;-0.14;95.51
83633;BME280;73595;53.084;6.696;2024-01-15T08:33:22;99786.72;;;0.10;95.02
83633;BME280;73595;53.084;6.696;2024-01-15T08:35:47;99798.09;;;0.09;94.77
83633;BME280;73595;53.084;6.696;2024-01-15T08:38:13;99798.13;;;0.18;94.99
83633;BME280;73595;53.084;6.696;2024-01-15T08:40:38;99798.19;;;0.28;94.40
83633;BME280;73595;53.084;6.696;2024-01-15T08:43:03;99755.03;;;0.05;93.67
83633;BME280;73595;53.084;6.696;2024-01-15T08:45:29;99796.88;;;0.43;93.45
83633;BME280;73595;53.084;6.696;2024-01-15T08:47:55;99826.06;;;0.58;93.71
83633;BME280;73595;53.084;6.696;2024-01-15T08:50:20;99783.41;;;0.38;93.08
83633;BME280;73595;53.084;6.696;2024-01-15T08:52:45;99830.09;;;0.72;92.24
83633;BME280;73595;53.084;6.696;2024-01-15T08:55:11;99786.38;;;0.54;92.13
83633;BME280;73595;53.084;6.696;2024-01-15T08:57:38;99823.09;;;0.82;91.86
83633;BME280;73595;53.084;6.696;2024-01-15T09:00:06;99792.16;;;0.58;91.90
83633;BME280;73595;53.084;6.696;2024-01-15T09:02:34;99812.09;;;0.69;91.29
83633;BME280;73595;53.084;6.696;2024-01-15T09:04:59;99803.44;;;0.68;91.19
83633;BME280;73595;53.084;6.696;2024-01-15T09:07:25;99818.69;;;0.73;90.91
83633;BME280;73595;53.084;6.696;2024-01-15T09:09:52;99812.44;;;0.85;91.11
83633;BME280;73595;53.084;6.696;2024-01-15T09:12:18;99772.44;;;0.75;90.21
83633;BME280;73595;53.084;6.696;2024-01-15T09:14:44;99715.16;;;0.44;89.28
83633;BME280;73595;53.084;6.696;2024-01-15T09:17:09;99793.78;;;0.99;89.55
83633;BME280;73595;53.084;6.696;2024-01-15T09:19:34;99818.94;;;1.10;89.72
83633;BME280;73595;53.084;6.696;2024-01-15T09:22:00;99814.38;;;1.02;90.22
83633;BME280;73595;53.084;6.696;2024-01-15T09:24:25;99814.81;;;1.07;89.89
83633;BME280;73595;53.084;6.696;2024-01-15T09:26:50;99786.50;;;0.93;89.20
83633;BME280;73595;53.084;6.696;2024-01-15T09:29:16;99804.22;;;0.99;90.03
83633;BME280;73595;53.084;6.696;2024-01-15T09:31:42;99798.56;;;0.94;89.99
83633;BME280;73595;53.084;6.696;2024-01-15T09:34:07;99781.81;;;0.87;90.04
83633;BME280;73595;53.084;6.696;2024-01-15T09:36:32;99806.84;;;1.09;90.13
83633;BME280;73595;53.084;6.696;2024-01-15T09:38:58;99755.47;;;0.80;89.56
83633;BME280;73595;53.084;6.696;2024-01-15T09:41:23;99792.56;;;1.03;90.02
83633;BME280;73595;53.084;6.696;2024-01-15T09:43:49;99789.97;;;1.03;90.20
83633;BME280;73595;53.084;6.696;2024-01-15T09:46:15;99778.56;;;1.04;90.26
83633;BME280;73595;53.084;6.696;2024-01-15T09:48:40;99782.81;;;1.05;91.12
83633;BME280;73595;53.084;6.696;2024-01-15T09:51:06;99809.34;;;1.11;90.89
83633;BME280;73595;53.084;6.696;2024-01-15T09:53:33;99820.75;;;1.10;91.78
83633;BME280;73595;53.084;6.696;2024-01-15T09:55:59;99775.63;;;0.78;91.31
83633;BME280;73595;53.084;6.696;2024-01-15T09:58:25;99813.53;;;0.92;91.93
83633;BME280;73595;53.084;6.696;2024-01-15T10:00:51;99800.47;;;0.82;92.66
83633;BME280;73595;53.084;6.696;2024-01-15T10:03:17;99792.34;;;0.76;93.09
83633;BME280;73595;53.084;6.696;2024-01-15T10:05:43;99788.22;;;0.73;93.46
83633;BME280;73595;53.084;6.696;2024-01-15T10:08:09;99803.72;;;0.75;93.58
83633;BME280;73595;53.084;6.696;2024-01-15T10:10:37;99821.53;;;0.70;93.96
83633;BME280;73595;53.084;6.696;2024-01-15T10:13:04;99803.00;;;0.63;94.01
83633;BME280;73595;53.084;6.696;2024-01-15T10:15:34;99785.34;;;0.67;93.66
83633;BME280;73595;53.084;6.696;2024-01-15T10:17:59;99818.75;;;0.92;94.08
83633;BME280;73595;53.084;6.696;2024-01-15T10:20:25;99788.25;;;0.83;94.00
83633;BME280;73595;53.084;6.696;2024-01-15T10:22:50;99795.69;;;0.88;94.28
83633;BME280;73595;53.084;6.696;2024-01-15T10:25:16;99811.66;;;1.04;94.12
83633;BME280;73595;53.084;6.696;2024-01-15T10:27:41;99818.13;;;1.10;93.54
83633;BME280;73595;53.084;6.696;2024-01-15T10:30:10;99783.31;;;0.80;93.33
83633;BME280;73595;53.084;6.696;2024-01-15T10:32:36;99819.19;;;0.97;93.72
83633;BME280;73595;53.084;6.696;2024-01-15T10:35:03;99802.00;;;0.85;94.25
83633;BME280;73595;53.084;6.696;2024-01-15T10:37:32;99804.47;;;0.87;94.85
83633;BME280;73595;53.084;6.696;2024-01-15T10:39:58;99810.13;;;0.92;94.54
83633;BME280;73595;53.084;6.696;2024-01-15T10:42:23;99714.59;;;0.41;94.40
83633;BME280;73595;53.084;6.696;2024-01-15T10:44:49;99805.72;;;1.02;94.74
83633;BME280;73595;53.084;6.696;2024-01-15T10:47:14;99785.56;;;1.04;94.76
83633;BME280;73595;53.084;6.696;2024-01-15T10:49:43;99752.31;;;0.96;93.78
83633;BME280;73595;53.084;6.696;2024-01-15T10:52:08;99768.16;;;1.33;93.09
83633;BME280;73595;53.084;6.696;2024-01-15T10:54:36;99765.28;;;1.46;92.99
83633;BME280;73595;53.084;6.696;2024-01-15T10:57:02;99766.94;;;1.57;92.67
83633;BME280;73595;53.084;6.696;2024-01-15T10:59:28;99756.91;;;1.43;92.94
83633;BME280;73595;53.084;6.696;2024-01-15T11:01:54;99795.53;;;1.49;93.77
83633;BME280;73595;53.084;6.696;2024-01-15T11:04:20;99683.97;;;0.73;93.84
83633;BME280;73595;53.084;6.696;2024-01-15T11:06:49;99754.84;;;1.27;93.80
83633;BME280;73595;53.084;6.696;2024-01-15T11:09:15;99790.13;;;1.60;93.61
83633;BME280;73595;53.084;6.696;2024-01-15T11:11:46;99814.47;;;1.70;93.60
83633;BME280;73595;53.084;6.696;2024-01-15T11:14:49;99803.19;;;1.60;93.58
83633;BME280;73595;53.084;6.696;2024-01-15T11:17:17;99702.38;;;0.91;94.18
83633;BME280;73595;53.084;6.696;2024-01-15T11:19:46;99808.97;;;1.54;94.14
83633;BME280;73595;53.084;6.696;2024-01-15T11:25:19;99801.69;;;1.38;94.58
83633;BME280;73595;53.084;6.696;2024-01-15T11:27:46;99808.25;;;1.23;94.97
83633;BME280;73595;53.084;6.696;2024-01-15T11:30:19;99812.34;;;1.16;95.08
83633;BME280;73595;53.084;6.696;2024-01-15T11:32:45;99816.19;;;1.12;95.49
83633;BME280;73595;53.084;6.696;2024-01-15T11:35:13;99770.81;;;0.74;95.60
83633;BME280;73595;53.084;6.696;2024-01-15T11:40:18;99811.94;;;1.11;95.34
83633;BME280;73595;53.084;6.696;2024-01-15T11:42:45;99829.84;;;1.54;94.73
83633;BME280;73595;53.084;6.696;2024-01-15T11:45:10;99823.53;;;1.37;94.46
83633;BME280;73595;53.084;6.696;2024-01-15T11:50:26;99767.38;;;0.83;94.57
83633;BME280;73595;53.084;6.696;2024-01-15T11:53:15;99816.19;;;1.21;94.85
83633;BME280;73595;53.084;6.696;2024-01-15T11:55:45;99810.84;;;1.13;95.33
83633;BME280;73595;53.084;6.696;2024-01-15T11:58:12;99811.53;;;1.15;95.67
83633;BME280;73595;53.084;6.696;2024-01-15T12:00:44;99797.91;;;1.02;94.58
83633;BME280;73595;53.084;6.696;2024-01-15T12:03:10;99789.41;;;0.90;94.94
83633;BME280;73595;53.084;6.696;2024-01-15T12:05:39;99813.25;;;0.95;95.54
83633;BME280;73595;53.084;6.696;2024-01-15T12:08:35;99663.34;;;-0.20;95.66
83633;BME280;73595;53.084;6.696;2024-01-15T12:11:49;99866.78;;;0.90;95.81
83633;BME280;73595;53.084;6.696;2024-01-15T12:14:18;99875.91;;;0.74;96.59
83633;BME280;73595;53.084;6.696;2024-01-15T12:16:43;99749.38;;;-0.01;96.25
83633;BME280;73595;53.084;6.696;2024-01-15T12:19:09;99768.34;;;0.11;96.47
83633;BME280;73595;53.084;6.696;2024-01-15T12:21:34;99875.81;;;0.86;95.90
83633;BME280;73595;53.084;6.696;2024-01-15T12:24:00;99880.47;;;0.82;96.16
83633;BME280;73595;53.084;6.696;2024-01-15T12:26:25;99809.59;;;0.37;96.22
83633;BME280;73595;53.084;6.696;2024-01-15T12:28:51;99880.75;;;0.89;95.46
83633;BME280;73595;53.084;6.696;2024-01-15T12:31:16;99824.69;;;0.64;95.69
83633;BME280;73595;53.084;6.696;2024-01-15T12:33:42;99878.66;;;1.03;95.57
83633;BME280;73595;53.084;6.696;2024-01-15T12:36:07;99880.53;;;1.01;95.57
83633;BME280;73595;53.084;6.696;2024-01-15T12:38:35;99882.47;;;0.99;95.89
83633;BME280;73595;53.084;6.696;2024-01-15T12:41:01;99777.38;;;0.38;96.06
83633;BME280;73595;53.084;6.696;2024-01-15T12:43:26;99879.59;;;1.02;96.15
83633;BME280;73595;53.084;6.696;2024-01-15T12:45:51;99864.75;;;0.93;96.56
83633;BME280;73595;53.084;6.696;2024-01-15T12:48:17;99875.31;;;1.01;95.88
83633;BME280;73595;53.084;6.696;2024-01-15T12:50:43;99881.66;;;1.08;96.14
83633;BME280;73595;53.084;6.696;2024-01-15T12:53:09;99896.16;;;1.32;95.63
83633;BME280;73595;53.084;6.696;2024-01-15T12:55:34;99892.44;;;1.34;95.44
83633;BME280;73595;53.084;6.696;2024-01-15T12:57:59;99892.03;;;1.29;95.75
83633;BME280;73595;53.084;6.696;2024-01-15T13:00:25;99849.78;;;0.95;95.48
83633;BME280;73595;53.084;6.696;2024-01-15T13:02:51;99898.38;;;1.46;95.33
83633;BME280;73595;53.084;6.696;2024-01-15T13:05:17;99895.00;;;1.75;94.22
83633;BME280;73595;53.084;6.696;2024-01-15T13:07:43;99900.34;;;1.63;94.07
83633;BME280;73595;53.084;6.696;2024-01-15T13:10:08;99899.94;;;1.58;94.17
83633;BME280;73595;53.084;6.696;2024-01-15T13:12:34;99844.63;;;1.15;94.14